Latest Weather Observations for Truscott

IDD60801

Issued at 4:11 pm CST Saturday 28 January 2023 (issued every 10 minutes, with the page automatically refreshed every 10 minutes)

About weather observations | Map of weather stations | Latest weather observations for NT | Other Formats
Station Details ID: 001020 Name: TRUSCOTT Lat: -14.09 Lon: 126.39 Height: 51.0 m
Data from the previous 72 hours. | See also: Recent months at Truscott
Date/Time
CST
Temp
°C
App
Temp
°C
Dew
Point
°C
Rel
Hum
%
Delta-T
°C
Wind Press
QNH
hPa
Press
MSL
hPa
Rain since
9am
mm
Dir  Spd
km/h
Gust
km/h
Spd
kts
Gust
kts
28/04:00pm 30.6 33.5 24.5 70 4.3 NNW 17 24 9 13 1003.3 1003.0 0.0
28/03:30pm 31.5 35.2 25.1 69 4.5 NNW 15 22 8 12 1004.0 1003.7 0.0
28/03:00pm 31.2 34.1 23.8 64 5.1 NNW 15 22 8 12 1004.4 1004.0 0.0
28/02:30pm 31.9 34.9 24.0 63 5.5 NW 15 22 8 12 1004.8 1004.4 0.0
28/02:00pm 31.4 34.1 23.5 63 5.5 WNW 15 22 8 12 1005.2 1004.8 0.0
28/01:30pm 31.4 34.6 24.3 66 5.0 W 15 20 8 11 1005.6 1005.2 0.0
28/01:00pm 31.4 34.5 23.5 63 5.5 WNW 13 17 7 9 1005.8 1005.4 0.0
28/12:30pm 31.1 34.2 23.5 64 5.3 WNW 13 19 7 10 1006.1 1005.7 0.0
28/12:00pm 31.3 34.8 22.9 61 5.8 WNW 9 15 5 8 1006.2 1005.8 0.0
28/11:30am 31.1 35.2 24.0 66 5.0 WNW 9 15 5 8 1006.4 1006.0 0.0
28/11:00am 31.2 35.1 23.6 64 5.3 WNW 9 13 5 7 1006.9 1006.5 0.0
28/10:30am 30.3 34.0 23.2 65 4.9 WNW 9 15 5 8 1007.0 1006.6 0.0
28/10:00am 29.0 34.3 25.2 80 2.7 WNW 7 13 4 7 1007.3 1006.9 0.0
28/09:30am 29.6 34.9 25.8 80 2.7 W 9 13 5 7 1007.2 1006.8 0.0
28/09:00am 29.0 33.9 25.8 83 2.3 W 11 15 6 8 1007.0 1006.6 0.0
28/08:30am 28.3 34.3 26.3 89 1.4 W 7 11 4 6 1006.7 1006.3 0.0
28/08:00am 27.6 35.2 26.7 95 0.6 CALM 0 0 0 0 1006.7 1006.3 0.0
28/07:30am 26.6 34.1 26.6 100 0.0 CALM 0 0 0 0 1006.5 1006.1 0.0
28/07:00am 26.7 33.1 26.7 100 0.0 SW 6 7 3 4 1006.1 1005.7 0.0
28/06:30am 26.7 33.1 26.7 100 0.0 SW 6 9 3 5 1005.7 1005.3 0.0
28/06:12am 26.6 34.1 26.6 100 0.0 CALM 0 0 0 0 1005.5 1005.1 0.0
28/06:00am 27.0 33.8 26.7 98 0.2 SW 4 7 2 4 1005.5 1005.1 0.0
28/05:49am 26.9 33.3 26.7 99 0.1 WSW 6 7 3 4 1005.2 1004.8 0.0
28/05:30am 26.5 32.6 26.5 100 0.0 WNW 7 9 4 5 1005.0 1004.6 0.0
28/05:00am 26.2 33.4 26.2 100 0.0 CALM 0 0 0 0 1004.8 1004.4 0.0
28/04:30am 26.4 33.8 26.4 100 0.0 CALM 0 0 0 0 1004.8 1004.4 0.0
28/04:00am 26.5 33.9 26.5 100 0.0 CALM 0 0 0 0 1004.7 1004.3 0.0
28/03:30am 26.8 33.3 26.8 100 0.0 NW 6 7 3 4 1004.7 1004.3 0.0
28/03:07am 27.0 33.6 27.0 100 0.0 WNW 6 9 3 5 1004.9 1004.5 0.0
28/03:00am 26.8 33.3 26.8 100 0.0 NW 6 7 3 4 1004.9 1004.5 0.0
28/02:30am 26.7 34.3 26.7 100 0.0 CALM 0 0 0 0 1004.9 1004.5 0.0
28/02:23am 26.7 34.3 26.7 100 0.0 CALM 0 0 0 0 1005.0 1004.6 0.0
28/02:00am 26.9 34.6 26.9 100 0.0 CALM 0 0 0 0 1005.3 1004.9 0.0
28/01:30am 26.9 34.5 26.7 99 0.1 CALM 0 0 0 0 1005.6 1005.2 0.0
28/01:00am 26.8 34.3 26.6 99 0.1 CALM 0 0 0 0 1006.2 1005.8 0.0
28/12:30am 27.0 34.6 26.7 98 0.2 CALM 0 0 0 0 1006.6 1006.2 0.0
28/12:00am 26.9 34.6 26.9 100 0.0 CALM 0 0 0 0 1007.0 1006.6 0.0
 
Date/Time
CST
Temp
°C
App
Temp
°C
Dew
Point
°C
Rel
Hum
%
Delta-T
°C
Wind Press
QNH
hPa
Press
MSL
hPa
Rain since
9am
mm
Dir  Spd
km/h
Gust
km/h
Spd
kts
Gust
kts
27/11:30pm 26.8 34.4 26.8 100 0.0 CALM 0 0 0 0 1007.4 1007.0 0.0
27/11:00pm 26.9 34.5 26.7 99 0.1 CALM 0 0 0 0 1007.6 1007.2 0.0
27/10:30pm 27.1 34.5 26.4 96 0.5 CALM 0 0 0 0 1007.5 1007.1 0.0
27/10:00pm 27.5 33.4 25.9 91 1.1 NNE 6 7 3 4 1007.7 1007.3 0.0
27/09:30pm 27.4 33.1 25.6 90 1.3 NE 6 7 3 4 1007.4 1007.0 0.0
27/09:00pm 27.5 33.8 25.3 88 1.5 NE 2 6 1 3 1007.0 1006.6 0.0
27/08:30pm 27.7 33.6 24.7 84 2.1 N 2 6 1 3 1006.8 1006.4 0.0
27/08:00pm 28.0 32.6 24.8 83 2.2 N 9 13 5 7 1006.5 1006.1 0.0
27/07:30pm 28.4 33.0 24.8 81 2.5 N 9 13 5 7 1006.2 1005.8 0.0
27/07:00pm 28.7 33.3 24.7 79 2.8 N 9 19 5 10 1005.6 1005.2 0.0
27/06:30pm 29.5 33.7 25.3 78 3.0 N 13 22 7 12 1005.1 1004.7 0.0
27/06:00pm 29.8 33.3 24.2 72 3.9 N 13 20 7 11 1004.6 1004.2 0.0
27/05:30pm 29.9 32.9 23.3 67 4.6 NNE 13 22 7 12 1004.4 1004.0 0.0
27/05:00pm 30.2 33.6 24.1 70 4.2 N 13 20 7 11 1004.6 1004.2 0.0
27/04:30pm 30.2 33.6 24.6 72 3.9 N 15 20 8 11 1004.8 1004.4 0.0
27/04:00pm 30.7 33.5 23.6 66 4.9 N 15 20 8 11 1004.9 1004.5 0.0
27/03:30pm 31.1 34.1 24.0 66 5.0 N 15 24 8 13 1005.4 1005.0 0.0
27/03:00pm 30.6 33.6 25.2 73 3.8 N 19 26 10 14 1005.9 1005.5 0.0
27/02:30pm 30.9 33.4 23.8 66 4.9 NNE 17 26 9 14 1006.2 1005.8 0.0
27/02:00pm 30.7 33.8 24.8 71 4.1 N 17 26 9 14 1006.5 1006.1 0.0
27/01:30pm 30.8 34.5 25.2 72 4.0 NNE 15 24 8 13 1007.1 1006.7 0.0
27/01:00pm 30.9 33.7 24.3 68 4.6 N 17 28 9 15 1007.3 1006.9 0.0
27/12:30pm 31.0 33.7 24.1 66 4.8 NE 17 28 9 15 1007.5 1007.1 0.0
27/12:00pm 30.5 33.6 24.2 69 4.4 NE 15 22 8 12 1007.7 1007.3 0.0
27/11:30am 30.2 33.3 24.1 70 4.3 NE 15 22 8 12 1008.1 1007.7 0.0
27/11:00am 29.6 34.0 25.1 77 3.2 NE 11 19 6 10 1008.6 1008.2 0.0
27/10:30am 29.7 33.8 25.2 77 3.2 ENE 13 19 7 10 1008.9 1008.5 2.2
27/10:00am 28.3 33.1 25.7 86 1.8 ENE 11 19 6 10 1009.2 1008.8 2.2
27/09:59am 28.4 33.0 26.0 87 1.7 ENE 13 19 7 10 1009.2 1008.8 2.2
27/09:30am 28.3 33.0 25.5 85 2.0 E 11 19 6 10 1009.1 1008.7 2.2
27/09:22am 28.1 33.2 25.5 86 1.8 E 9 17 5 9 1009.1 1008.7 2.2
27/09:00am 28.5 33.8 25.9 86 1.8 E 9 11 5 6 1009.0 1008.6 2.2
27/08:30am 27.3 32.6 25.9 92 1.0 E 9 13 5 7 1008.9 1008.5 2.2
27/08:00am 26.6 31.7 25.6 94 0.7 ESE 9 13 5 7 1008.6 1008.2 2.2
27/07:30am 26.1 31.7 25.8 98 0.2 ESE 7 9 4 5 1008.4 1008.0 2.2
27/07:00am 25.9 31.4 25.6 98 0.2 E 7 9 4 5 1008.0 1007.6 2.2
27/06:30am 25.7 31.1 25.5 99 0.1 ESE 7 11 4 6 1007.5 1007.1 2.2
27/06:00am 25.7 31.1 25.5 99 0.1 ESE 7 11 4 6 1007.0 1006.6 2.2
27/05:30am 25.6 31.0 25.4 99 0.1 ESE 7 11 4 6 1006.6 1006.2 2.2
27/05:00am 25.4 30.7 25.2 99 0.1 ESE 7 11 4 6 1006.3 1005.9 2.2
27/04:30am 25.5 30.8 25.2 98 0.2 ESE 7 11 4 6 1006.1 1005.7 2.2
27/04:00am 25.6 30.9 25.3 98 0.2 ESE 7 11 4 6 1006.2 1005.8 2.2
27/03:30am 25.5 31.1 25.5 100 0.0 ESE 6 9 3 5 1006.5 1006.1 2.2
27/03:00am 25.4 31.0 25.4 100 0.0 ESE 6 7 3 4 1006.5 1006.1 2.2
27/02:30am 25.5 31.1 25.5 100 0.0 ESE 6 9 3 5 1006.5 1006.1 2.2
27/02:00am 25.7 31.3 25.5 99 0.1 ESE 6 7 3 4 1006.8 1006.4 2.2
27/01:30am 25.9 31.5 25.4 97 0.4 E 6 11 3 6 1007.0 1006.6 2.2
27/01:00am 26.2 31.5 25.3 95 0.6 E 7 11 4 6 1007.5 1007.1 2.2
27/12:30am 26.7 31.5 25.1 91 1.1 E 9 13 5 7 1007.6 1007.2 2.2
27/12:00am 27.1 31.2 24.6 86 1.7 E 11 17 6 9 1008.1 1007.7 2.2
 
Date/Time
CST
Temp
°C
App
Temp
°C
Dew
Point
°C
Rel
Hum
%
Delta-T
°C
Wind Press
QNH
hPa
Press
MSL
hPa
Rain since
9am
mm
Dir  Spd
km/h
Gust
km/h
Spd
kts
Gust
kts
26/11:30pm 27.2 31.9 25.0 88 1.5 ENE 9 15 5 8 1008.4 1008.0 2.2
26/11:00pm 27.1 31.8 25.5 91 1.1 ENE 11 17 6 9 1008.3 1007.9 2.2
26/10:30pm 27.0 31.9 25.2 90 1.3 ENE 9 15 5 8 1008.4 1008.0 2.2
26/10:00pm 27.0 31.7 25.0 89 1.4 ENE 9 13 5 7 1008.1 1007.7 2.2
26/09:30pm 26.9 32.1 25.1 90 1.3 ENE 7 11 4 6 1007.8 1007.4 2.2
26/09:00pm 27.2 31.8 24.7 86 1.7 ENE 9 13 5 7 1007.5 1007.1 2.2
26/08:30pm 27.5 32.0 24.6 84 2.0 NE 9 15 5 8 1007.4 1007.0 2.2
26/08:00pm 27.6 32.0 24.4 83 2.2 NE 9 13 5 7 1007.2 1006.8 2.2
26/07:30pm 28.1 31.5 24.1 79 2.8 ENE 13 19 7 10 1006.6 1006.2 2.2
26/07:00pm 28.6 31.9 23.9 75 3.3 NE 13 20 7 11 1006.2 1005.8 2.2
26/06:30pm 28.8 33.0 24.8 79 2.8 NE 11 19 6 10 1005.9 1005.5 2.2
26/06:00pm 28.8 32.0 23.7 74 3.5 NE 13 20 7 11 1005.7 1005.3 2.2
26/05:30pm 28.7 32.1 24.7 79 2.8 NE 15 20 8 11 1005.5 1005.1 2.2
26/05:00pm 28.8 31.9 24.8 79 2.8 NE 17 24 9 13 1005.1 1004.7 2.2
26/04:34pm 29.0 32.6 24.3 76 3.3 ENE 13 22 7 12 1005.2 1004.8 2.0
26/04:30pm 29.1 32.7 24.4 76 3.3 ENE 13 22 7 12 1005.1 1004.7 2.0
26/04:13pm 28.3 33.6 25.9 87 1.7 ENE 9 13 5 7 1005.1 1004.7 2.0
26/04:07pm 28.3 33.9 26.3 89 1.4 ENE 9 13 5 7 1005.1 1004.7 2.0
26/04:00pm 28.2 33.6 26.0 88 1.6 ENE 9 15 5 8 1005.2 1004.8 2.0
26/03:30pm 27.7 32.8 26.1 91 1.1 E 11 15 6 8 1005.6 1005.2 2.0
26/03:15pm 27.7 32.4 26.1 91 1.1 ENE 13 19 7 10 1005.8 1005.4 2.0
26/03:00pm 27.7 32.4 26.1 91 1.1 E 13 20 7 11 1006.0 1005.6 2.0
26/02:45pm 27.7 32.8 26.1 91 1.1 E 11 17 6 9 1006.1 1005.7 2.0
26/02:30pm 27.3 31.5 25.3 89 1.4 E 13 24 7 13 1006.5 1006.1 2.0
26/02:00pm 27.4 32.0 26.5 95 0.6 E 15 22 8 12 1007.0 1006.6 2.0
26/01:30pm 26.7 31.8 26.7 100 0.0 E 13 20 7 11 1007.5 1007.1 2.0
26/01:16pm 26.3 31.5 26.3 100 0.0 ENE 11 20 6 11 1007.9 1007.5 2.0
26/01:00pm 26.2 29.2 25.2 94 0.7 ENE 19 35 10 19 1008.0 1007.6 1.4
26/12:59pm 26.3 29.2 25.1 93 0.8 ENE 19 35 10 19 1008.0 1007.6 1.4
26/12:33pm 29.6 33.7 25.8 80 2.7 ENE 15 24 8 13 1008.0 1007.6 0.0
26/12:30pm 29.9 34.5 26.5 82 2.4 E 15 24 8 13 1008.0 1007.6 0.0
26/12:23pm 29.3 33.6 26.1 83 2.3 NE 15 24 8 13 1008.1 1007.7 0.0
26/12:21pm 29.3 33.5 25.9 82 2.4 NE 15 24 8 13 1008.1 1007.7 0.0
26/12:00pm 29.3 33.0 25.1 78 3.0 ENE 15 26 8 14 1008.3 1007.9 0.0
26/11:30am 28.9 34.1 26.3 86 1.9 ENE 11 19 6 10 1008.5 1008.1 0.0
26/11:00am 28.5 33.1 26.5 89 1.4 ENE 15 22 8 12 1008.7 1008.3 0.0
26/10:32am 28.0 33.8 27.7 98 0.2 ENE 13 17 7 9 1008.7 1008.3 0.0
26/10:30am 28.0 34.0 27.5 97 0.4 ENE 11 15 6 8 1008.7 1008.3 59.0
26/10:00am 27.7 33.7 27.4 98 0.2 ENE 11 17 6 9 1008.9 1008.5 59.0
26/09:58am 27.5 33.3 27.2 98 0.2 ENE 11 17 6 9 1008.9 1008.5 59.0
26/09:30am 27.1 33.2 27.1 100 0.0 ENE 9 13 5 7 1008.7 1008.3 59.0
26/09:00am 26.8 32.7 26.8 100 0.0 ESE 9 13 5 7 1008.5 1008.1 58.8
26/08:39am 26.2 31.7 26.2 100 0.0 E 9 15 5 8 1008.4 1008.0 58.8
26/08:30am 26.0 31.4 26.0 100 0.0 E 9 13 5 7 1008.3 1007.9 58.8
26/08:00am 25.6 31.1 25.6 100 0.0 ESE 7 11 4 6 1007.9 1007.5 58.8
26/07:30am 25.4 30.8 25.4 100 0.0 E 7 9 4 5 1007.7 1007.3 58.8
26/07:00am 25.1 30.3 25.1 100 0.0 ESE 7 9 4 5 1007.2 1006.8 58.8
26/06:30am 25.2 30.5 25.2 100 0.0 ESE 7 9 4 5 1006.7 1006.3 58.8
26/06:00am 25.5 30.9 25.5 100 0.0 SE 7 11 4 6 1006.3 1005.9 58.8
26/05:47am 25.5 30.9 25.5 100 0.0 ESE 7 11 4 6 1006.1 1005.7 58.8
26/05:41am 25.5 30.6 25.5 100 0.0 SE 9 11 5 6 1006.1 1005.7 58.6
26/05:30am 25.7 30.1 25.7 100 0.0 E 13 20 7 11 1006.1 1005.7 58.0
26/05:27am 25.7 30.1 25.7 100 0.0 E 13 20 7 11 1006.2 1005.8 57.6
26/05:25am 25.6 30.3 25.6 100 0.0 E 11 20 6 11 1006.1 1005.7 56.4
26/05:00am 25.4 30.4 25.4 100 0.0 ESE 9 11 5 6 1005.6 1005.2 55.2
26/04:30am 25.3 30.8 25.3 100 0.0 ESE 6 9 3 5 1005.7 1005.3 55.2
26/04:00am 25.4 30.8 25.4 100 0.0 ESE 7 11 4 6 1005.7 1005.3 55.2
26/03:32am 25.2 30.6 25.2 100 0.0 SE 6 9 3 5 1006.0 1005.6 55.2
26/03:30am 25.2 30.6 25.2 100 0.0 SE 6 9 3 5 1006.0 1005.6 55.2
26/03:17am 25.3 30.8 25.3 100 0.0 NE 6 9 3 5 1006.1 1005.7 55.0
26/03:00am 25.4 31.0 25.4 100 0.0 SSW 6 9 3 5 1006.5 1006.1 50.2
26/02:46am 25.3 30.6 25.3 100 0.0 SW 7 17 4 9 1006.5 1006.1 46.8
26/02:45am 25.4 31.0 25.4 100 0.0 SW 6 15 3 8 1006.5 1006.1 46.6
26/02:30am 25.4 31.0 25.4 100 0.0 S 6 7 3 4 1006.5 1006.1 45.8
26/02:00am 25.2 30.6 25.2 100 0.0 SSE 6 7 3 4 1006.4 1006.0 45.4
26/01:30am 25.2 30.6 25.2 100 0.0 SE 6 9 3 5 1006.5 1006.1 44.8
26/01:00am 25.1 30.3 25.1 100 0.0 ESE 7 9 4 5 1006.7 1006.3 44.4
26/12:30am 24.8 29.8 24.8 100 0.0 E 7 11 4 6 1006.9 1006.5 44.2
26/12:00am 24.9 29.6 24.9 100 0.0 ENE 9 15 5 8 1007.1 1006.7 43.8
 
Date/Time
CST
Temp
°C
App
Temp
°C
Dew
Point
°C
Rel
Hum
%
Delta-T
°C
Wind Press
QNH
hPa
Press
MSL
hPa
Rain since
9am
mm
Dir  Spd
km/h
Gust
km/h
Spd
kts
Gust
kts
25/11:51pm 24.8 29.0 24.8 100 0.0 ENE 11 20 6 11 1007.2 1006.8 43.8
25/11:41pm 25.0 29.4 25.0 100 0.0 ENE 11 20 6 11 1007.4 1007.0 43.4
25/11:31pm 25.5 29.8 25.5 100 0.0 ENE 13 20 7 11 1007.4 1007.0 41.8
25/11:30pm 25.6 30.0 25.6 100 0.0 NE 13 17 7 9 1007.4 1007.0 41.2
25/11:20pm 25.4 30.4 25.4 100 0.0 NE 9 15 5 8 1007.4 1007.0 34.8
25/11:13pm 25.3 30.2 25.3 100 0.0 E 9 13 5 7 1007.4 1007.0 33.0
25/11:00pm 25.2 29.3 25.2 100 0.0 ESE 13 17 7 9 1007.2 1006.8 32.4
25/10:57pm 25.2 29.7 25.2 100 0.0 ESE 11 17 6 9 1007.2 1006.8 32.2
25/10:38pm 25.3 29.5 25.3 100 0.0 ESE 13 19 7 10 1007.2 1006.8 31.2
25/10:30pm 25.4 30.0 25.4 100 0.0 ESE 11 20 6 11 1007.1 1006.7 31.0
25/10:11pm 25.5 30.2 25.5 100 0.0 SE 11 17 6 9 1006.9 1006.5 30.8
25/10:00pm 25.4 30.4 25.4 100 0.0 SE 9 13 5 7 1006.9 1006.5 30.8
25/09:30pm 25.4 30.4 25.4 100 0.0 ESE 9 13 5 7 1006.6 1006.2 30.6
25/09:05pm 25.6 30.7 25.6 100 0.0 ESE 9 15 5 8 1006.0 1005.6 30.6
25/09:00pm 25.7 30.9 25.7 100 0.0 ESE 9 15 5 8 1005.9 1005.5 30.6
25/08:37pm 25.9 30.5 25.9 100 0.0 E 13 20 7 11 1005.7 1005.3 30.6
25/08:30pm 25.9 30.8 25.9 100 0.0 ENE 11 20 6 11 1005.6 1005.2 30.6
25/08:25pm 25.8 31.6 25.8 100 0.0 ENE 6 15 3 8 1005.6 1005.2 30.6
25/08:10pm 25.7 31.8 25.7 100 0.0 E 4 9 2 5 1005.3 1004.9 30.6
25/08:00pm 25.6 31.3 25.6 100 0.0 ENE 6 9 3 5 1005.2 1004.8 30.4
25/07:46pm 25.2 30.5 25.2 100 0.0 ENE 7 15 4 8 1005.1 1004.7 30.4
25/07:36pm 25.1 29.9 25.1 100 0.0 ENE 9 13 5 7 1004.9 1004.5 30.4
25/07:30pm 25.2 30.5 25.2 100 0.0 ENE 7 11 4 6 1004.6 1004.2 30.0
25/07:00pm 25.3 29.9 25.3 100 0.0 ESE 11 17 6 9 1004.6 1004.2 29.6
25/06:33pm 25.4 30.0 25.4 100 0.0 E 11 15 6 8 1004.6 1004.2 29.0
25/06:32pm 25.4 30.4 25.4 100 0.0 E 9 15 5 8 1004.6 1004.2 29.0
25/06:30pm 25.4 30.4 25.4 100 0.0 E 9 15 5 8 1004.5 1004.1 28.8
25/06:00pm 25.3 29.9 25.3 100 0.0 E 11 19 6 10 1004.2 1003.8 28.6
25/05:52pm 25.3 29.5 25.3 100 0.0 E 13 17 7 9 1003.9 1003.6 28.2

Other formats

Comma delimited format used in spreadsheet applications
http://www.bom.gov.au/fwo/IDD60801/IDD60801.95101.axf

JavaScript Object Notation format (JSON) in row-major order
http://www.bom.gov.au/fwo/IDD60801/IDD60801.95101.json

Data quality

Most of these data are generated automatically and are frequently updated. Quality checks on data are not normally performed. It is possible for incorrect values to appear. Refer to information at About Latest Weather Observations and please check the disclaimer before using these data.